createdAt,value
2018-11-05T00:00:50.134Z,88.72
2018-11-05T00:03:55.524Z,88.76
2018-11-05T00:07:00.897Z,88.21
2018-11-05T00:10:06.586Z,88.40
2018-11-05T00:13:12.116Z,88.56
2018-11-05T00:16:17.551Z,88.55
2018-11-05T00:19:23.438Z,88.47
2018-11-05T00:22:28.939Z,88.37
2018-11-05T00:25:34.326Z,88.88
2018-11-05T00:28:39.906Z,89.02
2018-11-05T00:31:45.385Z,88.46
2018-11-05T00:34:50.786Z,88.27
2018-11-05T00:37:56.322Z,89.19
2018-11-05T00:41:01.829Z,89.03
2018-11-05T00:44:07.838Z,88.44
2018-11-05T00:47:13.275Z,88.63
2018-11-05T00:50:20.928Z,87.80
2018-11-05T00:53:26.365Z,87.56
2018-11-05T00:56:31.746Z,88.41
2018-11-05T00:59:37.150Z,87.70
2018-11-05T01:02:42.810Z,87.76
2018-11-05T01:05:48.206Z,87.69
2018-11-05T01:08:53.589Z,87.89
2018-11-05T01:11:59.086Z,87.54
2018-11-05T01:15:04.529Z,88.08
2018-11-05T01:18:09.959Z,87.95
2018-11-05T01:21:15.425Z,88.13
2018-11-05T01:24:20.803Z,88.25
2018-11-05T01:27:26.181Z,87.85
2018-11-05T01:30:31.574Z,88.34
2018-11-05T01:33:37.016Z,88.28
2018-11-05T01:36:42.401Z,88.69
2018-11-05T01:39:47.777Z,88.59
2018-11-05T01:42:53.239Z,88.34
2018-11-05T01:45:58.626Z,89.21
2018-11-05T01:49:04.051Z,88.72
2018-11-05T01:52:10.213Z,88.45
2018-11-05T01:55:15.641Z,88.70
2018-11-05T01:58:21.042Z,88.36
2018-11-05T02:01:26.582Z,88.36
2018-11-05T02:04:31.983Z,88.15
2018-11-05T02:07:37.362Z,88.05
2018-11-05T02:10:42.747Z,88.19
2018-11-05T02:13:48.243Z,88.02
2018-11-05T02:16:53.654Z,87.92
2018-11-05T02:19:59.082Z,88.30
2018-11-05T02:23:05.067Z,88.12
2018-11-05T02:26:10.851Z,88.07
2018-11-05T02:29:16.214Z,88.21
2018-11-05T02:32:21.765Z,88.59
2018-11-05T02:35:27.403Z,88.20
2018-11-05T02:38:32.806Z,88.06
2018-11-05T02:41:38.487Z,88.08
2018-11-05T02:44:43.889Z,88.45
2018-11-05T02:47:49.458Z,89.48
2018-11-05T02:50:54.906Z,88.75
2018-11-05T02:54:00.314Z,89.14
2018-11-05T02:57:05.947Z,88.61
2018-11-05T03:00:19.924Z,88.45
2018-11-05T03:03:25.476Z,88.38
2018-11-05T03:06:31.014Z,88.10
2018-11-05T03:09:36.493Z,88.40
2018-11-05T03:12:42.542Z,88.37
2018-11-05T03:15:47.971Z,88.42
2018-11-05T03:18:53.372Z,89.16
2018-11-05T03:21:59.482Z,89.09
2018-11-05T03:25:05.526Z,88.78
2018-11-05T03:28:10.913Z,89.03
2018-11-05T03:31:16.398Z,88.85
2018-11-05T03:34:22.300Z,89.03
2018-11-05T03:37:28.082Z,88.84
2018-11-05T03:40:33.479Z,89.15
2018-11-05T03:43:38.966Z,89.28
2018-11-05T03:46:45.238Z,89.38
2018-11-05T03:49:50.732Z,89.69
2018-11-05T03:52:56.779Z,89.74
2018-11-05T03:56:02.300Z,90.72
2018-11-05T03:59:07.974Z,90.12
2018-11-05T04:02:13.570Z,90.40
2018-11-05T04:05:18.994Z,90.46
2018-11-05T04:08:24.378Z,90.32
2018-11-05T04:11:30.552Z,90.28
2018-11-05T04:14:36.000Z,90.41
2018-11-05T04:17:41.687Z,89.49
2018-11-05T04:20:47.102Z,89.66
2018-11-05T04:23:52.576Z,89.85
2018-11-05T04:26:57.998Z,89.69
2018-11-05T04:30:03.444Z,89.48
2018-11-05T04:33:08.946Z,89.26
2018-11-05T04:36:14.373Z,89.88
2018-11-05T04:39:19.770Z,89.61
2018-11-05T04:42:25.299Z,90.30
2018-11-05T04:45:30.699Z,90.35
2018-11-05T04:48:36.114Z,89.97
2018-11-05T04:51:41.919Z,90.00
2018-11-05T04:54:47.313Z,90.41
2018-11-05T04:57:52.721Z,90.34
2018-11-05T05:00:58.250Z,90.10
2018-11-05T05:04:03.642Z,90.67
2018-11-05T05:07:09.155Z,90.55
2018-11-05T05:10:14.554Z,90.42
2018-11-05T05:13:20.073Z,90.42
2018-11-05T05:16:25.616Z,90.41
2018-11-05T05:19:31.098Z,90.69
2018-11-05T05:22:36.793Z,90.29
2018-11-05T05:25:42.270Z,91.29
2018-11-05T05:28:49.781Z,90.92
2018-11-05T05:31:55.226Z,90.38
2018-11-05T05:35:00.611Z,90.89
2018-11-05T05:38:06.906Z,90.72
2018-11-05T05:41:12.507Z,90.66
2018-11-05T05:44:18.045Z,90.78
2018-11-05T05:47:23.909Z,90.89
2018-11-05T05:50:29.307Z,90.65
2018-11-05T05:53:34.791Z,90.69
2018-11-05T05:56:40.635Z,90.88
2018-11-05T05:59:48.154Z,90.33
2018-11-05T06:02:53.794Z,90.36
2018-11-05T06:05:59.239Z,90.84
2018-11-05T06:09:07.114Z,90.75
2018-11-05T06:12:12.592Z,90.41
2018-11-05T06:15:18.227Z,90.68
2018-11-05T06:18:23.886Z,90.44
2018-11-05T06:21:29.353Z,90.98
2018-11-05T06:24:34.771Z,91.12
2018-11-05T06:27:40.212Z,91.09
2018-11-05T06:30:45.651Z,90.96
2018-11-05T06:33:51.149Z,90.87
2018-11-05T06:36:56.575Z,91.88
2018-11-05T06:40:01.960Z,91.35
2018-11-05T06:43:07.605Z,91.15
2018-11-05T06:46:13.729Z,90.70
2018-11-05T06:49:19.911Z,90.96
2018-11-05T06:52:25.366Z,90.54
2018-11-05T06:55:30.907Z,89.67
2018-11-05T06:58:36.318Z,90.36
2018-11-05T07:01:41.806Z,90.38
2018-11-05T07:04:47.289Z,90.03
2018-11-05T07:07:53.010Z,89.81
2018-11-05T07:10:58.443Z,89.00
2018-11-05T07:14:06.796Z,88.85
2018-11-05T07:17:12.514Z,89.62
2018-11-05T07:20:19.177Z,89.43
2018-11-05T07:23:24.681Z,89.35
2018-11-05T07:26:30.226Z,89.04
2018-11-05T07:29:36.550Z,89.46
2018-11-05T07:32:43.107Z,89.24
2018-11-05T07:35:48.600Z,88.94
2018-11-05T07:38:54.694Z,89.50
2018-11-05T07:42:00.120Z,89.01
2018-11-05T07:45:07.649Z,88.88
2018-11-05T07:48:13.061Z,89.13
2018-11-05T07:51:18.538Z,88.97
2018-11-05T07:54:23.957Z,89.05
2018-11-05T07:57:29.439Z,88.89
2018-11-05T08:00:39.999Z,88.99
2018-11-05T08:03:45.458Z,88.74
2018-11-05T08:06:51.280Z,88.47
2018-11-05T08:09:56.669Z,88.12
2018-11-05T08:13:02.083Z,88.07
2018-11-05T08:16:08.203Z,87.62
2018-11-05T08:19:13.608Z,87.06
2018-11-05T08:22:19.035Z,87.86
2018-11-05T08:25:24.474Z,87.94
2018-11-05T08:28:29.897Z,88.12
2018-11-05T08:31:35.457Z,87.43
2018-11-05T08:34:40.846Z,87.21
2018-11-05T08:37:47.221Z,87.08
2018-11-05T08:40:52.610Z,87.39
2018-11-05T08:43:57.994Z,87.54
2018-11-05T08:47:04.896Z,87.44
2018-11-05T08:50:13.190Z,87.11
2018-11-05T08:53:18.678Z,86.93
2018-11-05T08:56:24.059Z,87.04
2018-11-05T08:59:29.450Z,86.45
2018-11-05T09:02:35.760Z,86.20
2018-11-05T09:05:41.191Z,86.38
2018-11-05T09:08:46.942Z,86.61
2018-11-05T09:11:52.418Z,86.52
2018-11-05T09:14:58.018Z,86.41
2018-11-05T09:18:03.426Z,86.77
2018-11-05T09:21:08.841Z,86.13
2018-11-05T09:24:14.629Z,86.49
2018-11-05T09:27:20.182Z,85.91
2018-11-05T09:30:26.062Z,86.12
2018-11-05T09:33:31.498Z,86.03
2018-11-05T09:36:36.897Z,85.59
2018-11-05T09:39:42.251Z,85.17
2018-11-05T09:42:48.369Z,86.13
2018-11-05T09:45:53.909Z,86.21
2018-11-05T09:48:59.265Z,86.21
2018-11-05T09:52:04.782Z,86.10
2018-11-05T09:55:11.731Z,84.87
2018-11-05T09:58:17.091Z,85.11
2018-11-05T10:01:22.554Z,84.81
2018-11-05T10:04:28.005Z,84.95
2018-11-05T10:07:33.625Z,85.63
2018-11-05T10:10:39.038Z,85.27
2018-11-05T10:13:44.457Z,85.37
2018-11-05T10:16:49.848Z,85.19
2018-11-05T10:19:55.235Z,84.64
2018-11-05T10:23:00.634Z,84.58
2018-11-05T10:26:06.403Z,85.14
2018-11-05T10:29:11.957Z,84.75
2018-11-05T10:32:17.350Z,84.85
2018-11-05T10:35:27.939Z,84.78
2018-11-05T10:38:35.499Z,84.90
2018-11-05T10:41:41.050Z,85.57
2018-11-05T10:44:46.474Z,84.86
2018-11-05T10:47:51.923Z,85.33
2018-11-05T10:50:57.365Z,85.06
2018-11-05T10:54:02.743Z,85.54
2018-11-05T10:57:08.269Z,85.65
2018-11-05T11:00:23.767Z,85.13
2018-11-05T11:03:34.192Z,84.64
2018-11-05T11:06:39.739Z,84.93
2018-11-05T11:09:45.575Z,85.07
2018-11-05T11:12:52.304Z,85.07
2018-11-05T11:19:30.509Z,84.86
2018-11-05T11:22:36.006Z,85.22
2018-11-05T11:25:41.830Z,84.24
2018-11-05T11:28:47.440Z,84.20
2018-11-05T11:31:52.966Z,84.25
2018-11-05T11:34:59.170Z,84.61
2018-11-05T11:38:04.955Z,84.51
2018-11-05T11:41:10.435Z,85.16
2018-11-05T11:44:15.916Z,84.71
2018-11-05T11:47:21.473Z,84.95
2018-11-05T11:50:27.073Z,84.20
2018-11-05T11:53:32.555Z,84.09
2018-11-05T11:56:38.331Z,84.29
2018-11-05T11:59:43.889Z,84.25
2018-11-05T12:02:50.217Z,84.25
2018-11-05T12:05:55.696Z,84.58
2018-11-05T12:09:01.078Z,84.94
2018-11-05T12:12:07.998Z,85.09
2018-11-05T12:15:15.321Z,84.02
2018-11-05T12:18:20.698Z,84.71
2018-11-05T12:21:26.077Z,84.65
2018-11-05T12:24:31.697Z,85.08
2018-11-05T12:27:37.495Z,84.98
2018-11-05T12:30:42.929Z,85.42
2018-11-05T12:33:48.466Z,84.87
2018-11-05T12:36:53.830Z,85.11
2018-11-05T12:39:59.193Z,85.01
2018-11-05T12:43:04.607Z,85.34
2018-11-05T12:46:10.334Z,85.33
2018-11-05T12:49:17.866Z,85.99
2018-11-05T12:52:23.326Z,85.32
2018-11-05T12:55:28.773Z,85.97
2018-11-05T12:58:34.393Z,85.83
2018-11-05T13:01:40.279Z,85.62
2018-11-05T13:04:45.649Z,85.73
2018-11-05T13:07:51.068Z,85.76
2018-11-05T13:10:56.443Z,85.77
2018-11-05T13:14:01.833Z,86.11
2018-11-05T13:17:07.215Z,85.38
2018-11-05T13:20:16.699Z,86.55
2018-11-05T13:23:27.840Z,85.67
2018-11-05T13:26:33.194Z,86.13
2018-11-05T13:29:38.761Z,86.09
2018-11-05T13:32:44.798Z,86.53
2018-11-05T13:35:50.178Z,85.97
2018-11-05T13:38:55.591Z,85.65
2018-11-05T13:42:01.062Z,86.18
2018-11-05T13:45:08.305Z,86.27
2018-11-05T13:48:14.218Z,85.37
2018-11-05T13:51:20.462Z,85.17
2018-11-05T13:54:25.968Z,85.38
2018-11-05T13:57:31.576Z,85.19
2018-11-05T14:00:37.225Z,85.07
2018-11-05T14:03:42.626Z,85.48
2018-11-05T14:06:48.215Z,85.00
2018-11-05T14:09:53.721Z,84.67
2018-11-05T14:12:59.090Z,84.74
2018-11-05T14:16:04.882Z,83.90
2018-11-05T14:19:10.302Z,84.42
2018-11-05T14:22:15.670Z,84.77
2018-11-05T14:25:21.706Z,84.71
2018-11-05T14:28:27.422Z,84.73
2018-11-05T14:31:33.150Z,85.20
2018-11-05T14:34:38.550Z,85.24
2018-11-05T14:37:43.941Z,84.91
2018-11-05T14:40:49.326Z,84.73
2018-11-05T14:43:54.702Z,85.84
2018-11-05T14:47:00.098Z,85.37
2018-11-05T14:50:07.445Z,84.83
2018-11-05T14:53:12.819Z,84.92
2018-11-05T14:56:18.229Z,84.94
2018-11-05T14:59:23.654Z,84.30
2018-11-05T15:02:34.156Z,84.48
2018-11-05T15:05:39.734Z,84.12
2018-11-05T15:08:45.141Z,84.73
2018-11-05T15:11:50.538Z,85.38
2018-11-05T15:14:55.941Z,84.56
2018-11-05T15:18:02.655Z,84.43
2018-11-05T15:21:08.847Z,84.87
2018-11-05T15:24:14.433Z,84.95
2018-11-05T15:27:19.827Z,84.68
2018-11-05T15:30:25.228Z,85.09
2018-11-05T15:33:30.714Z,84.67
2018-11-05T15:36:36.318Z,84.96
2018-11-05T15:39:41.699Z,84.37
2018-11-05T15:42:47.429Z,83.92
2018-11-05T15:45:52.802Z,84.10
2018-11-05T15:48:58.377Z,83.61
2018-11-05T15:52:04.054Z,83.57
2018-11-05T15:55:09.598Z,83.70
2018-11-05T15:58:14.949Z,83.76
2018-11-05T16:01:20.482Z,83.85
2018-11-05T16:04:26.686Z,83.30
2018-11-05T16:07:32.210Z,83.13
2018-11-05T16:10:37.607Z,83.30
2018-11-05T16:13:43.346Z,83.31
2018-11-05T16:16:48.713Z,83.59
2018-11-05T16:19:54.902Z,83.42
2018-11-05T16:23:00.291Z,83.26
2018-11-05T16:26:06.141Z,83.42
2018-11-05T16:29:11.514Z,83.34
2018-11-05T16:32:17.029Z,82.66
2018-11-05T16:35:22.631Z,83.16
2018-11-05T16:38:28.289Z,83.37
2018-11-05T16:41:33.899Z,83.05
2018-11-05T16:44:39.835Z,83.18
2018-11-05T16:47:45.633Z,83.47
2018-11-05T16:50:51.186Z,83.45
2018-11-05T16:53:56.634Z,83.93
2018-11-05T16:57:02.189Z,83.92
2018-11-05T17:00:08.347Z,83.91
2018-11-05T17:03:13.848Z,83.75
2018-11-05T17:06:19.430Z,83.62
2018-11-05T17:09:24.856Z,83.29
2018-11-05T17:12:31.266Z,83.25
2018-11-05T17:15:36.635Z,83.50
2018-11-05T17:18:42.074Z,84.00
2018-11-05T17:21:47.545Z,83.97
2018-11-05T17:24:53.016Z,83.76
2018-11-05T17:27:58.446Z,84.45
2018-11-05T17:31:03.920Z,84.43
2018-11-05T17:34:09.335Z,84.58
2018-11-05T17:37:14.902Z,83.87
2018-11-05T17:40:21.700Z,84.61
2018-11-05T17:43:27.218Z,84.18
2018-11-05T17:46:32.649Z,84.33
2018-11-05T17:49:38.030Z,83.96
2018-11-05T17:52:44.236Z,83.98
2018-11-05T17:55:49.586Z,84.89
2018-11-05T17:58:55.003Z,84.27
2018-11-05T18:02:00.433Z,84.47
2018-11-05T18:05:06.509Z,84.81
2018-11-05T18:08:11.882Z,84.43
2018-11-05T18:11:17.277Z,84.01
2018-11-05T18:14:22.674Z,84.19
2018-11-05T18:17:28.108Z,84.09
2018-11-05T18:20:33.618Z,84.42
2018-11-05T18:23:39.062Z,84.22
2018-11-05T18:26:44.456Z,85.10
2018-11-05T18:29:49.874Z,84.91
2018-11-05T18:32:55.266Z,84.87
2018-11-05T18:36:00.651Z,85.25
2018-11-05T18:39:09.943Z,85.45
2018-11-05T18:42:27.162Z,85.61
2018-11-05T18:45:32.621Z,85.64
2018-11-05T18:48:38.210Z,85.56
2018-11-05T18:51:43.585Z,85.72
2018-11-05T18:54:49.238Z,86.31
2018-11-05T18:57:54.821Z,86.49
2018-11-05T19:01:00.262Z,86.69
2018-11-05T19:04:06.384Z,86.56
2018-11-05T19:07:11.750Z,86.59
2018-11-05T19:10:17.671Z,86.53
2018-11-05T19:13:23.070Z,86.52
2018-11-05T19:16:28.469Z,86.66
2018-11-05T19:19:33.875Z,86.60
2018-11-05T19:22:41.395Z,87.05
2018-11-05T19:25:46.974Z,87.26
2018-11-05T19:28:52.337Z,87.16
2018-11-05T19:31:57.716Z,86.79
2018-11-05T19:35:03.118Z,86.75
2018-11-05T19:38:08.815Z,86.47
2018-11-05T19:41:14.198Z,86.59
2018-11-05T19:44:20.358Z,87.27
2018-11-05T19:47:25.736Z,87.36
2018-11-05T19:50:31.141Z,87.14
2018-11-05T19:53:36.580Z,86.73
2018-11-05T19:56:42.138Z,87.01
2018-11-05T19:59:47.873Z,86.83
2018-11-05T20:02:54.370Z,86.78
2018-11-05T20:05:59.824Z,87.27
2018-11-05T20:09:07.379Z,86.68
2018-11-05T20:12:12.805Z,87.15
2018-11-05T20:15:18.301Z,86.94
2018-11-05T20:18:23.748Z,86.91
2018-11-05T20:21:29.298Z,86.76
2018-11-05T20:24:34.681Z,86.99
2018-11-05T20:27:40.725Z,86.95
2018-11-05T20:30:46.135Z,86.56
2018-11-05T20:33:51.674Z,86.84
2018-11-05T20:36:57.090Z,86.79
2018-11-05T20:40:02.664Z,87.06
2018-11-05T20:43:07.855Z,87.01
2018-11-05T20:46:13.283Z,86.58
2018-11-05T20:49:18.753Z,87.20
2018-11-05T20:52:24.220Z,86.79
2018-11-05T20:55:29.598Z,87.11
2018-11-05T20:58:35.015Z,86.70
2018-11-05T21:01:43.716Z,86.96
2018-11-05T21:05:00.940Z,86.62
2018-11-05T21:08:06.546Z,86.63
2018-11-05T21:11:11.970Z,87.00
2018-11-05T21:14:20.939Z,87.42
2018-11-05T21:17:37.881Z,87.42
2018-11-05T21:20:43.323Z,87.87
2018-11-05T21:23:48.862Z,87.57
2018-11-05T21:26:54.326Z,87.22
2018-11-05T21:29:59.897Z,87.09
2018-11-05T21:33:05.615Z,87.33
2018-11-05T21:36:11.718Z,87.32
2018-11-05T21:39:17.154Z,87.39
2018-11-05T21:42:22.641Z,87.41
2018-11-05T21:45:28.010Z,87.55
2018-11-05T21:48:33.387Z,88.08
2018-11-05T21:51:38.893Z,88.24
2018-11-05T21:54:44.758Z,88.35
2018-11-05T21:57:50.517Z,88.53
2018-11-05T22:00:55.902Z,88.66
2018-11-05T22:04:01.290Z,88.77
2018-11-05T22:07:07.678Z,88.91
2018-11-05T22:10:13.713Z,89.11
2018-11-05T22:13:19.154Z,88.65
2018-11-05T22:16:24.526Z,88.46
2018-11-05T22:19:29.943Z,88.39
2018-11-05T22:22:35.466Z,88.08
2018-11-05T22:25:41.008Z,88.25
2018-11-05T22:28:46.377Z,87.90
2018-11-05T22:31:51.842Z,87.93
2018-11-05T22:34:57.509Z,87.97
2018-11-05T22:38:03.788Z,87.97
2018-11-05T22:41:09.548Z,87.80
2018-11-05T22:44:15.173Z,87.69
2018-11-05T22:47:20.530Z,87.39
2018-11-05T22:50:25.959Z,87.81
2018-11-05T22:53:31.642Z,88.01
2018-11-05T22:56:37.038Z,88.17
2018-11-05T22:59:42.922Z,87.61
2018-11-05T23:02:53.594Z,88.09
2018-11-05T23:05:59.786Z,87.78
2018-11-05T23:09:07.018Z,87.86
2018-11-05T23:12:12.518Z,88.35
2018-11-05T23:15:18.236Z,88.26
2018-11-05T23:18:23.598Z,88.50
2018-11-05T23:21:29.063Z,87.91
2018-11-05T23:24:34.450Z,88.58
2018-11-05T23:27:40.153Z,88.82
2018-11-05T23:30:45.578Z,88.74
2018-11-05T23:33:50.937Z,88.53
2018-11-05T23:36:56.482Z,88.63
2018-11-05T23:40:01.858Z,88.43
2018-11-05T23:43:07.294Z,89.09
2018-11-05T23:46:12.662Z,88.86
2018-11-05T23:49:18.146Z,89.05
2018-11-05T23:52:23.962Z,88.09
2018-11-05T23:55:29.335Z,88.20
2018-11-05T23:58:34.704Z,88.24
